Weather reports worldwide

Advertisment
Nieuw Beerta aws, Netherlands (6286): temperature & dewpoint: 01.08.2020 03:00:00 - 07.08.2020 03:00:00 (CEST)Nieuw Beerta aws, Netherlands (6286): temperature 5cm & temperature -5cm: 01.08.2020 03:00:00 - 07.08.2020 03:00:00 (CEST)Nieuw Beerta aws, Netherlands (6286): temperature -20cm & temperature -100cm: 01.08.2020 03:00:00 - 07.08.2020 03:00:00 (CEST)Nieuw Beerta aws, Netherlands (6286): wind speed & gusts: 01.08.2020 03:00:00 - 07.08.2020 03:00:00 (CEST)Nieuw Beerta aws, Netherlands (6286): wind direction: 01.08.2020 03:00:00 - 07.08.2020 03:00:00 (CEST)Nieuw Beerta aws, Netherlands (6286): precipitation: 01.08.2020 03:00:00 - 07.08.2020 03:00:00 (CEST)
Date & Time tt [°C] td [°C] tt 5cm [°C] tt -5cm [°C] tt -20cm [°C] tt -100cm [°C] ff [km/h] ff [kn] fx [km/h] fx [kn] dd rr [mm]
07.08.2020 03:00:00 - - - - - - - - - - - -
07.08.2020 02:00:00 14,8 13,0 13,7 19,6 20,2 16,1 11 6 11 6 ENE 0,0
07.08.2020 01:00:00 15,1 13,5 14,1 20,1 20,3 16,1 11 6 11 6 NE 0,0
07.08.2020 00:00:00 16,1 14,1 15,1 20,7 20,5 16,1 11 6 14 8 NE 0,0
06.08.2020 23:00:00 17,3 14,6 16,5 21,3 20,6 16,1 11 6 14 8 NE 0,0
06.08.2020 22:00:00 18,7 15,2 17,5 22,0 20,7 16,1 7 4 18 10 NE 0,0
06.08.2020 21:00:00 21,5 16,9 21,0 22,8 20,7 16,1 14 8 22 12 NNE 0,0
06.08.2020 20:00:00 25,3 17,2 25,1 23,5 20,6 16,1 14 8 25 14 N 0,0
06.08.2020 19:00:00 26,7 17,2 27,0 24,2 20,5 16,1 18 10 25 14 N 0,0
06.08.2020 18:00:00 28,8 16,3 30,4 24,8 20,2 16,1 18 10 22 12 NNW 0,0
06.08.2020 17:00:00 29,7 14,5 31,7 25,2 19,9 16,1 14 8 22 12 N 0,0
06.08.2020 16:00:00 31,1 9,5 33,6 25,1 19,5 16,1 14 8 25 14 SSW 0,0
06.08.2020 15:00:00 31,1 9,7 33,5 24,6 19,2 16,1 14 8 32 18 SW 0,0
06.08.2020 14:00:00 30,6 9,8 33,0 23,7 18,8 16,1 14 8 29 16 SW 0,0
06.08.2020 13:00:00 29,4 11,4 31,8 22,6 18,5 16,1 11 6 18 10 SW 0,0
06.08.2020 12:00:00 27,9 12,2 29,6 21,2 18,2 16,1 14 8 22 12 SW 0,0
06.08.2020 11:00:00 26,3 12,9 27,7 19,7 18,1 16,1 11 6 18 10 S 0,0
06.08.2020 10:00:00 23,6 12,6 24,6 18,4 18,1 16,1 11 6 18 10 SSW 0,0
06.08.2020 09:00:00 20,7 12,4 19,8 17,8 18,2 16,1 11 6 25 14 S 0,0
06.08.2020 08:00:00 19,4 11,8 18,9 17,4 18,3 16,1 14 8 18 10 S 0,0
06.08.2020 07:00:00 16,3 11,5 14,0 17,1 18,4 16,1 7 4 14 8 S 0,0
06.08.2020 06:00:00 13,4 10,8 12,1 17,3 18,5 16,1 11 6 11 6 SSE 0,0
06.08.2020 05:00:00 14,6 11,2 12,8 17,5 18,7 16,1 7 4 14 8 SSE 0,0
06.08.2020 04:00:00 14,7 11,4 13,2 17,8 18,8 16,1 11 6 14 8 SSE 0,0
06.08.2020 03:00:00 15,4 11,8 13,8 18,0 19,0 16,1 11 6 14 8 SSE 0,0
06.08.2020 02:00:00 15,0 12,2 12,8 18,4 19,1 16,1 7 4 14 8 SSE 0,0
06.08.2020 01:00:00 15,1 12,4 12,8 18,8 19,3 16,1 7 4 14 8 SE 0,0
06.08.2020 00:00:00 15,6 13,1 13,8 19,3 19,4 16,1 7 4 11 6 SE 0,0
05.08.2020 23:00:00 16,3 13,9 15,0 19,9 19,5 16,1 4 2 11 6 ENE 0,0
05.08.2020 22:00:00 18,7 14,1 16,8 20,6 19,5 16,1 7 4 11 6 E 0,0
05.08.2020 21:00:00 21,1 15,5 20,2 21,3 19,5 16,1 7 4 14 8 ENE 0,0
05.08.2020 20:00:00 26,4 13,9 26,2 21,9 19,5 16,1 4 2 14 8 WSW 0,0
05.08.2020 19:00:00 27,0 12,4 27,3 22,4 19,3 16,1 11 6 22 12 W 0,0
05.08.2020 18:00:00 27,2 11,6 28,7 22,9 19,1 16,1 11 6 29 16 W 0,0
05.08.2020 17:00:00 26,7 10,9 29,0 23,1 18,8 16,1 14 8 32 18 WSW 0,0
05.08.2020 16:00:00 27,8 9,8 29,5 22,9 18,5 16,1 22 12 40 21 WSW 0,0
05.08.2020 15:00:00 27,7 6,4 29,8 22,3 18,2 16,1 22 12 36 19 SW 0,0
05.08.2020 14:00:00 26,4 7,5 29,1 21,4 17,9 16,1 22 12 40 21 SW 0,0
05.08.2020 13:00:00 25,8 8,5 27,7 20,3 17,7 16,1 25 14 43 23 SW 0,0
05.08.2020 12:00:00 24,5 6,5 25,9 19,2 17,5 16,1 29 16 47 25 SW 0,0
05.08.2020 11:00:00 21,9 6,7 23,4 18,3 17,5 16,1 32 18 47 25 SSW 0,0
05.08.2020 10:00:00 20,1 10,0 20,9 17,3 17,5 16,1 25 14 40 21 SSW 0,0
05.08.2020 09:00:00 17,8 9,8 18,1 16,8 17,5 16,1 22 12 36 19 SSW 0,0
05.08.2020 08:00:00 17,1 9,6 16,9 16,3 17,6 16,1 22 12 29 16 SSW 0,0
05.08.2020 07:00:00 15,3 8,7 14,5 16,2 17,8 16,1 18 10 29 16 S 0,0
05.08.2020 06:00:00 13,9 8,5 12,6 16,4 17,9 16,1 14 8 22 12 S 0,0
05.08.2020 05:00:00 13,9 8,2 12,9 16,7 18,0 16,1 14 8 22 12 S 0,0
05.08.2020 04:00:00 14,0 8,2 12,9 17,0 18,1 16,1 14 8 18 10 S 0,0
05.08.2020 03:00:00 15,3 8,3 14,5 17,3 18,3 16,1 11 6 18 10 SSE 0,0
05.08.2020 02:00:00 15,3 8,7 14,6 17,6 18,4 16,1 14 8 22 12 SSE 0,0
05.08.2020 01:00:00 15,3 9,7 14,4 17,8 18,5 16,1 11 6 18 10 SSE 0,0
05.08.2020 00:00:00 14,7 10,7 14,2 18,2 18,6 16,1 11 6 14 8 SSE 0,0
04.08.2020 23:00:00 14,7 11,0 14,1 18,6 18,7 16,1 11 6 11 6 SSE 0,0
04.08.2020 22:00:00 14,9 11,7 14,4 19,0 18,8 16,1 7 4 11 6 SSE 0,0
04.08.2020 21:00:00 16,7 10,9 15,8 19,7 18,8 16,1 7 4 11 6 SW 0,0
04.08.2020 20:00:00 18,9 8,6 18,4 20,4 18,8 16,1 7 4 18 10 W 0,0
04.08.2020 19:00:00 21,0 8,6 21,6 21,0 18,7 16,1 7 4 18 10 WNW 0,0
04.08.2020 18:00:00 19,7 9,8 19,8 21,3 18,5 16,1 18 10 25 14 NNE 0,0
04.08.2020 17:00:00 20,1 10,3 22,3 21,4 18,3 16,1 18 10 25 14 NNW 0,0
04.08.2020 16:00:00 19,7 10,3 21,8 21,2 18,0 16,1 22 12 32 18 N 0,0
04.08.2020 15:00:00 19,4 10,9 21,0 20,6 17,7 16,1 18 10 29 16 NNW 0,0
04.08.2020 14:00:00 18,8 11,3 19,6 19,9 17,5 16,1 14 8 25 14 N 0,0
04.08.2020 13:00:00 18,7 11,8 18,6 19,2 17,3 16,1 14 8 25 14 NNW 0,0
04.08.2020 12:00:00 18,7 12,5 17,9 18,4 17,1 16,1 14 8 25 14 NNW 0,0
04.08.2020 11:00:00 17,1 12,1 17,3 18,0 17,0 16,1 11 6 25 14 W 0,0
04.08.2020 10:00:00 17,6 12,6 19,1 16,8 17,0 16,1 11 6 18 10 SW 0,0
04.08.2020 09:00:00 15,2 13,7 15,1 15,8 17,0 16,1 7 4 11 6 SW 0,0
04.08.2020 08:00:00 13,2 13,1 13,2 15,2 17,2 16,1 4 2 7 4 SSW 0,0
04.08.2020 07:00:00 10,2 10,1 10,0 15,0 17,3 16,1 7 4 11 6 S 0,0
04.08.2020 06:00:00 9,0 8,8 8,3 15,1 17,5 16,1 7 4 7 4 SSW 0,0
04.08.2020 05:00:00 8,9 8,7 7,8 15,3 17,7 16,1 4 2 7 4 WSW 0,0
04.08.2020 04:00:00 9,1 8,9 7,6 15,7 17,9 16,1 7 4 7 4 W 0,0
04.08.2020 03:00:00 10,5 10,3 7,5 16,0 18,0 16,1 0 0 4 2 N 0,0
04.08.2020 02:00:00 10,8 10,5 8,1 16,4 18,2 16,1 0 0 4 2 N 0,0
04.08.2020 01:00:00 11,8 11,6 9,1 16,9 18,4 16,1 4 2 11 6 E 0,0
04.08.2020 00:00:00 11,3 10,7 10,1 17,4 18,5 16,1 7 4 11 6 NE 0,0
03.08.2020 23:00:00 12,4 11,7 10,3 18,0 18,6 16,1 7 4 11 6 NNE 0,0
03.08.2020 22:00:00 13,7 12,4 11,9 18,7 18,7 16,1 4 2 7 4 NW 0,0
03.08.2020 21:00:00 16,2 13,4 15,8 19,3 18,7 16,1 7 4 14 8 NNW 0,0
03.08.2020 20:00:00 17,8 12,7 17,5 19,7 18,6 16,0 7 4 11 6 NNW 0,0
03.08.2020 19:00:00 18,6 12,1 19,0 19,8 18,5 16,0 11 6 14 8 WNW 0,0
03.08.2020 18:00:00 18,0 13,0 18,4 19,5 18,5 16,0 4 2 11 6 SW 0,0
03.08.2020 17:00:00 16,3 13,1 17,1 19,1 18,5 16,0 7 4 7 4 SSE 0,0
03.08.2020 16:00:00 15,6 13,5 16,0 19,2 18,5 16,0 4 2 11 6 SE 0,0
03.08.2020 15:00:00 15,3 13,6 15,5 19,5 18,4 16,0 4 2 18 10 NW 0,0
03.08.2020 14:00:00 14,7 13,8 14,6 19,9 18,3 16,0 14 8 32 18 NW 5,3
03.08.2020 13:00:00 16,7 11,3 17,4 20,9 18,0 16,0 22 12 29 16 N 0,0
03.08.2020 12:00:00 20,1 11,4 23,7 19,7 17,8 16,0 11 6 22 12 SW 0,0
03.08.2020 11:00:00 19,4 13,1 21,7 18,5 17,7 16,0 14 8 22 12 SSW 0,0
03.08.2020 10:00:00 17,8 13,2 19,3 17,3 17,7 16,0 11 6 18 10 S 0,0
03.08.2020 09:00:00 16,3 13,4 16,8 16,5 17,7 16,0 11 6 14 8 SSW 0,0
03.08.2020 08:00:00 13,3 12,5 13,5 15,9 17,9 16,0 7 4 11 6 SSW 0,0
03.08.2020 07:00:00 10,7 10,6 10,4 15,7 18,1 16,0 7 4 11 6 S 0,0
03.08.2020 06:00:00 8,7 8,4 6,9 15,9 18,2 16,0 4 2 7 4 SSW 0,0
03.08.2020 05:00:00 9,6 9,4 7,6 16,2 18,4 16,0 7 4 11 6 WSW 0,0
03.08.2020 04:00:00 9,6 9,4 8,5 16,5 18,6 16,0 7 4 7 4 SSW 0,0
03.08.2020 03:00:00 11,2 11,0 8,8 16,8 18,8 16,0 7 4 11 6 SW 0,0
03.08.2020 02:00:00 10,9 10,5 9,5 17,2 19,0 16,0 7 4 11 6 SSW 0,0
03.08.2020 01:00:00 10,8 10,0 9,6 17,5 19,2 16,0 7 4 11 6 SSW 0,0
03.08.2020 00:00:00 12,1 11,3 10,0 18,0 19,4 16,0 7 4 7 4 WSW 0,0
02.08.2020 23:00:00 12,2 11,3 10,3 18,6 19,6 16,0 7 4 11 6 W 0,0
02.08.2020 22:00:00 13,0 11,3 11,8 19,4 19,7 16,0 7 4 14 8 WNW 0,0
02.08.2020 21:00:00 16,2 12,1 15,9 20,1 19,8 16,0 14 8 22 12 NW 0,0
02.08.2020 20:00:00 18,2 11,7 18,1 20,7 19,8 16,0 18 10 32 18 NW 0,0
02.08.2020 19:00:00 18,8 11,8 19,0 21,4 19,8 16,0 22 12 36 19 NW 0,0
02.08.2020 18:00:00 20,7 11,8 21,0 21,9 19,7 16,0 25 14 36 19 WNW 0,0
02.08.2020 17:00:00 20,7 12,5 21,0 22,2 19,6 16,0 25 14 40 21 WNW 0,0
02.08.2020 16:00:00 21,6 11,8 22,7 22,3 19,4 16,0 25 14 40 21 WNW 0,0
02.08.2020 15:00:00 21,4 11,9 23,1 21,6 19,3 16,0 25 14 40 21 WNW 0,0
02.08.2020 14:00:00 19,6 14,8 19,7 21,2 19,1 16,0 29 16 40 21 WNW 0,0
02.08.2020 13:00:00 17,8 16,9 17,7 21,6 19,0 16,0 22 12 43 23 WNW 2,7
02.08.2020 12:00:00 22,1 16,2 24,5 20,6 18,8 15,9 14 8 32 18 SW 0,0
02.08.2020 11:00:00 21,9 15,9 23,4 19,7 18,8 15,9 18 10 25 14 WSW 0,0
02.08.2020 10:00:00 20,7 15,2 21,3 18,9 18,8 15,9 14 8 22 12 SW 0,0
02.08.2020 09:00:00 18,6 15,3 19,1 18,3 18,8 15,9 14 8 22 12 SSW 0,0
02.08.2020 08:00:00 15,9 14,8 15,8 17,8 19,0 15,9 11 6 14 8 S 0,0
02.08.2020 07:00:00 13,7 13,4 12,7 17,7 19,1 15,9 7 4 14 8 SSW 0,0
02.08.2020 06:00:00 12,7 12,3 11,5 17,8 19,3 15,9 11 6 11 6 S 0,0
02.08.2020 05:00:00 12,7 12,4 11,7 18,0 19,5 15,9 11 6 11 6 S 0,0
02.08.2020 04:00:00 12,7 12,5 11,1 18,3 19,7 15,9 7 4 7 4 SSW 0,0
02.08.2020 03:00:00 12,5 11,9 11,5 18,7 19,9 15,9 7 4 7 4 S 0,0
02.08.2020 02:00:00 12,7 11,9 11,3 19,1 20,1 15,9 4 2 11 6 WSW 0,0
02.08.2020 01:00:00 13,3 12,5 11,5 19,7 20,2 15,9 7 4 11 6 WNW 0,0
02.08.2020 00:00:00 13,9 12,4 12,6 20,4 20,4 15,9 11 6 11 6 WNW 0,0
01.08.2020 23:00:00 16,4 13,6 15,0 21,2 20,5 15,9 7 4 22 12 W 0,0
01.08.2020 22:00:00 20,0 16,4 19,7 21,8 20,5 15,9 11 6 25 14 W 0,0
01.08.2020 21:00:00 20,4 17,5 20,0 22,4 20,5 15,9 7 4 29 16 W 0,0
01.08.2020 20:00:00 22,0 17,8 22,0 23,0 20,5 15,9 22 12 32 18 WNW 0,0
01.08.2020 19:00:00 24,0 17,8 24,3 23,4 20,4 15,9 18 10 25 14 WNW 0,0
01.08.2020 18:00:00 25,0 18,2 25,7 23,7 20,3 15,9 18 10 29 16 W 0,0
01.08.2020 17:00:00 25,6 18,2 25,4 23,9 20,0 15,9 18 10 32 18 WNW 0,0
01.08.2020 16:00:00 26,3 18,0 27,0 24,0 19,8 15,9 25 14 32 18 WNW 0,0
01.08.2020 15:00:00 27,2 18,7 29,0 23,7 19,5 15,9 22 12 36 19 WNW 0,0
01.08.2020 14:00:00 27,5 18,7 30,6 22,8 19,2 15,9 22 12 32 18 W 0,0
01.08.2020 13:00:00 27,0 19,4 27,1 21,7 19,1 15,9 14 8 22 12 SW 0,0
01.08.2020 12:00:00 24,7 18,6 26,6 20,8 18,9 15,9 14 8 22 12 SW 0,0
01.08.2020 11:00:00 23,4 17,0 24,4 20,1 18,9 15,9 14 8 18 10 SSW 0,0
01.08.2020 10:00:00 21,7 16,7 21,8 19,2 18,9 15,9 11 6 14 8 SE 0,0
01.08.2020 09:00:00 19,2 15,9 18,6 18,7 18,9 15,9 7 4 14 8 E 0,0
01.08.2020 08:00:00 18,3 15,1 18,2 18,6 19,0 15,9 7 4 18 10 SE 0,0
01.08.2020 07:00:00 18,2 14,5 18,0 18,6 19,1 15,9 11 6 25 14 SE 0,0
01.08.2020 06:00:00 17,6 14,1 16,5 18,6 19,2 15,9 11 6 22 12 SE 0,0
01.08.2020 05:00:00 17,9 14,2 16,9 18,8 19,4 15,9 14 8 29 16 ESE 0,0
01.08.2020 04:00:00 17,9 14,5 16,7 19,1 19,5 15,9 14 8 22 12 E 0,0
01.08.2020 03:00:00 17,4 14,9 16,6 19,4 19,6 15,9 14 8 22 12 E 0,0

tt = temperature
td = dewpoint
tt 5cm = temperature 5cm
tt -5cm = temperature -5cm
tt -20cm = temperature -20cm
tt -100cm = temperature -100cm
ff = wind speed
fx = gusts
dd = wind direction
rr = precipitation

Next stations